NCAR-RAP Real-Time Weather Data

Output produced by METARs form (01 December 2020  17:12 UTC)
found at http://weather.rap.ucar.edu/surface/
 
KISP 011656Z 22017G25KT 10SM SCT030 BKN060 BKN085 12/06 A2954 RMK AO2 PK WND 22026/1625 SLP003 T01170056
KISP 011556Z 23015G23KT 10SM FEW025 BKN060 BKN085 BKN250 12/07 A2955 RMK AO2 SLP005 T01170067
KISP 011456Z 22016G23KT 10SM FEW025 BKN050 BKN070 13/08 A2955 RMK AO2 SLP007 T01280083 51014
KISP 011356Z 22014KT 10SM SCT010 BKN045 BKN080 BKN250 12/11 A2955 RMK AO2 SLP004 T01220106
KISP 011315Z 22012KT 10SM BKN010 BKN037 BKN070 BKN200 BKN250 13/12 A2954 RMK AO2 T01280117
KISP 011256Z 22011KT 10SM FEW010 BKN034 BKN065 BKN200 13/12 A2953 RMK AO2 SLP000 T01280117
KISP 011156Z 17008KT 10SM FEW005 SCT035 BKN060 OVC200 13/12 A2951 RMK AO2 SLP993 70086 T01330122 10139 20133 53004
KISP 011056Z 17008KT 9SM SCT005 BKN065 BKN210 13/13 A2951 RMK AO2 SLP991 T01330128
KISP 011041Z AUTO 17009KT 9SM SCT005 BKN065 13/13 A2950 RMK AO2 T01330128
KISP 011013Z AUTO 17008KT 7SM BKN005 OVC060 13/13 A2950 RMK AO2 T01330133
KISP 011004Z AUTO 18008KT 8SM SCT005 OVC060 13/13 A2951 RMK AO2 T01330128
KISP 010956Z AUTO 17006KT 8SM BKN060 13/13 A2950 RMK AO2 SLP990 T01330133
KISP 010856Z AUTO 17007KT 8SM CLR 13/13 A2950 RMK AO2 SLP989 T01330133 50004
KISP 010756Z AUTO 19009KT 9SM SCT009 13/13 A2952 RMK AO2 SLP996 T01330128
KISP 010656Z AUTO 16007KT 7SM CLR 13/13 A2949 RMK AO2 SLP985 T01330128
KISP 010556Z AUTO 18007KT 7SM CLR 14/14 A2947 RMK AO2 SLP980 60003 T01390139 10172 20139 55000
KISP 010456Z 19010KT 6SM BR SCT007 BKN050 14/14 A2947 RMK AO2 SLP979 LAST T01440139 401720039
KISP 010439Z 19010KT 6SM BR SCT007 BKN060 15/14 A2946 RMK AO2 T01500144
KISP 010417Z 18011KT 6SM BR SCT010 BKN060 15/14 A2946 RMK AO2 T01500144
KISP 010356Z 18008KT 3SM BR FEW006 BKN012 OVC055 15/14 A2947 RMK AO2 SLP978 T01500144
KISP 010334Z 17009KT 5SM BR FEW006 BKN012 OVC055 16/14 A2948 RMK AO2 T01560144
KISP 010256Z 18011G17KT 6SM BR FEW006 SCT029 OVC048 16/14 A2947 RMK AO2 PK WND 18032/0212 SLP980 60003 T01560144 53007
KISP 010156Z 18021G33KT 7SM FEW006 BKN016 OVC021 17/16 A2947 RMK AO2 PK WND 18034/0137 RAB41E50 SLP978 P0000 T01670156